createdAt,value
2023-03-10T00:06:14.440Z,1.6
2023-03-10T00:15:37.047Z,1.3
2023-03-10T00:17:40.656Z,1.3
2023-03-10T00:19:44.324Z,1.6
2023-03-10T00:21:48.011Z,1.7
2023-03-10T00:23:51.790Z,1.9
2023-03-10T00:25:55.483Z,1.8
2023-03-10T00:27:59.240Z,1.6
2023-03-10T00:30:06.004Z,1.8
2023-03-10T00:34:13.308Z,1.9
2023-03-10T00:36:17.039Z,1.4
2023-03-10T00:40:24.387Z,1.6
2023-03-10T00:42:28.009Z,1.3
2023-03-10T00:44:34.736Z,1.7
2023-03-10T00:46:38.506Z,1.6
2023-03-10T00:48:42.016Z,1.6
2023-03-10T00:50:45.675Z,1.8
2023-03-10T00:52:49.324Z,1.7
2023-03-10T00:56:56.779Z,1.7
2023-03-10T00:59:03.647Z,1.8
2023-03-10T01:01:07.350Z,1.9
2023-03-10T01:03:11.082Z,1.4
2023-03-10T01:04:14.657Z,1.6
2023-03-10T01:06:18.147Z,1.5
2023-03-10T01:08:21.805Z,1.5
2023-03-10T01:10:25.577Z,1.7
2023-03-10T01:12:32.300Z,1.7
2023-03-10T01:14:35.960Z,1.7
2023-03-10T01:16:39.630Z,1.4
2023-03-10T01:18:43.354Z,1.7
2023-03-10T01:20:47.023Z,1.6
2023-03-10T01:22:50.624Z,1.6
2023-03-10T01:24:54.379Z,1.4
2023-03-10T01:29:04.832Z,1.6
2023-03-10T01:31:08.539Z,1.8
2023-03-10T01:33:12.203Z,1.7
2023-03-10T01:35:15.949Z,1.8
2023-03-10T01:37:19.591Z,1.4
2023-03-10T01:39:23.330Z,1.8
2023-03-10T01:41:30.235Z,1.3
2023-03-10T01:43:33.946Z,1.9
2023-03-10T01:45:37.774Z,1.5
2023-03-10T01:47:41.307Z,1.7
2023-03-10T01:49:44.941Z,1.5
2023-03-10T01:51:48.592Z,1.4
2023-03-10T01:53:52.344Z,1.6
2023-03-10T01:55:59.166Z,1.6
2023-03-10T01:58:02.868Z,1.7
2023-03-10T02:04:34.718Z,1.8
2023-03-10T02:08:45.208Z,1.8
2023-03-10T02:10:48.856Z,1.7
2023-03-10T02:12:52.581Z,1.4
2023-03-10T02:14:56.214Z,1.5
2023-03-10T02:16:59.951Z,1.6
2023-03-10T02:23:14.114Z,1.8
2023-03-10T02:25:17.841Z,1.8
2023-03-10T02:27:21.581Z,1.7
2023-03-10T02:29:25.264Z,1.7
2023-03-10T02:35:36.310Z,1.6
2023-03-10T02:43:54.342Z,1.8
2023-03-10T02:45:58.094Z,1.6
2023-03-10T02:48:01.758Z,1.4
2023-03-10T02:50:05.498Z,1.8
2023-03-10T02:54:15.916Z,1.8
2023-03-10T02:56:19.655Z,1.6
2023-03-10T02:57:22.993Z,1.3
2023-03-10T02:59:26.741Z,1.5
2023-03-10T03:01:30.617Z,1.7
2023-03-10T03:03:34.170Z,1.3
2023-03-10T03:05:40.889Z,1.4
2023-03-10T03:07:44.669Z,1.3
2023-03-10T03:09:48.392Z,1.3
2023-03-10T03:11:52.107Z,1.6
2023-03-10T03:13:55.840Z,1.7
2023-03-10T03:18:03.097Z,1.4
2023-03-10T03:20:09.805Z,1.2
2023-03-10T03:22:13.442Z,1.4
2023-03-10T03:24:17.061Z,1.2
2023-03-10T03:26:20.686Z,1.7
2023-03-10T03:28:24.324Z,1.7
2023-03-10T03:30:28.074Z,1.6
2023-03-10T03:32:31.875Z,1.5
2023-03-10T03:34:38.698Z,1.4
2023-03-10T03:38:46.159Z,1.4
2023-03-10T03:44:57.217Z,1.7
2023-03-10T03:47:00.896Z,1.5
2023-03-10T03:53:14.973Z,1.7
2023-03-10T03:54:18.395Z,1.6
2023-03-10T03:56:22.014Z,1.3
2023-03-10T03:58:25.669Z,1.8
2023-03-10T04:00:29.350Z,1.3
2023-03-10T04:02:36.256Z,1.3
2023-03-10T04:04:39.945Z,1.5
2023-03-10T04:06:43.648Z,1.5
2023-03-10T04:08:47.346Z,1.3
2023-03-10T04:10:51.016Z,1.3
2023-03-10T04:17:05.263Z,1.2
2023-03-10T04:19:08.902Z,1.2
2023-03-10T04:21:12.509Z,1.4
2023-03-10T04:23:16.132Z,1.6
2023-03-10T04:25:19.829Z,1.2
2023-03-10T04:27:23.548Z,1.4
2023-03-10T04:29:27.195Z,1.6
2023-03-10T04:31:34.042Z,1.6
2023-03-10T04:33:37.643Z,1.5
2023-03-10T04:35:41.454Z,1.2
2023-03-10T04:37:45.007Z,1.4
2023-03-10T04:39:48.615Z,1.6
2023-03-10T04:41:52.254Z,1.4
2023-03-10T04:43:55.939Z,1.5
2023-03-10T04:46:02.810Z,1.6
2023-03-10T04:48:06.473Z,1.7
2023-03-10T04:50:10.224Z,1.6
2023-03-10T04:53:17.388Z,1.2
2023-03-10T04:55:21.137Z,1.2
2023-03-10T04:57:24.887Z,1.6
2023-03-10T04:59:31.567Z,1.3
2023-03-10T05:01:35.364Z,1.5
2023-03-10T05:03:39.061Z,1.4
2023-03-10T05:05:42.788Z,1.3
2023-03-10T05:07:46.511Z,1.5
2023-03-10T05:09:50.238Z,1.6
2023-03-10T05:11:53.891Z,1.3
2023-03-10T05:14:00.682Z,1.2
2023-03-10T05:16:04.407Z,1.5
2023-03-10T05:18:08.024Z,1.4
2023-03-10T05:20:11.674Z,1.6
2023-03-10T05:22:15.430Z,1.3
2023-03-10T05:24:19.161Z,1.4
2023-03-10T05:26:22.895Z,1.1
2023-03-10T05:28:29.798Z,1.6
2023-03-10T05:30:33.534Z,1.6
2023-03-10T05:32:37.319Z,1.6
2023-03-10T05:36:44.677Z,1.6
2023-03-10T05:40:52.747Z,1.3
2023-03-10T05:47:07.131Z,1.5
2023-03-10T05:49:31.300Z,1.1
2023-03-10T05:51:35.047Z,1.4
2023-03-10T05:55:45.670Z,1.4
2023-03-10T05:57:49.310Z,1.2
2023-03-10T05:59:53.041Z,1.1
2023-03-10T06:01:56.698Z,1.6
2023-03-10T06:04:00.521Z,1.6
2023-03-10T06:06:04.171Z,1.4
2023-03-10T06:08:07.931Z,1.4
2023-03-10T06:10:14.663Z,1.4
2023-03-10T06:12:19.909Z,1.4
2023-03-10T06:14:23.617Z,1.4
2023-03-10T06:20:34.837Z,1.5
2023-03-10T06:24:45.470Z,1.4
2023-03-10T06:35:03.961Z,1.4
2023-03-10T06:37:07.684Z,1.4
2023-03-10T06:39:14.401Z,1.4
2023-03-10T06:41:18.081Z,1.4
2023-03-10T06:44:25.118Z,1.4
2023-03-10T06:46:28.836Z,1.4
2023-03-10T06:50:36.268Z,1.4
2023-03-10T06:52:43.040Z,1.3
2023-03-10T06:54:46.662Z,1.4
2023-03-10T06:56:50.341Z,1.4
2023-03-10T06:58:54.045Z,1.4
2023-03-10T07:00:57.776Z,1.4
2023-03-10T07:03:01.474Z,1.3
2023-03-10T07:05:05.301Z,1.3
2023-03-10T07:07:12.093Z,1.4
2023-03-10T07:09:15.820Z,1.4
2023-03-10T07:11:19.553Z,1.5
2023-03-10T07:13:23.205Z,1.5
2023-03-10T07:15:26.852Z,1.5
2023-03-10T07:17:30.575Z,1.6
2023-03-10T07:19:34.244Z,1.6
2023-03-10T07:25:48.481Z,1.5
2023-03-10T07:29:55.872Z,1.6
2023-03-10T07:31:59.622Z,1.6
2023-03-10T07:34:03.271Z,1.6
2023-03-10T07:36:10.098Z,1.6
2023-03-10T07:38:13.675Z,1.7
2023-03-10T07:40:17.428Z,1.7
2023-03-10T07:41:20.780Z,1.7
2023-03-10T07:43:24.485Z,1.7
2023-03-10T07:45:28.159Z,1.7
2023-03-10T07:47:31.938Z,1.7
2023-03-10T07:49:38.640Z,1.7
2023-03-10T07:51:42.295Z,1.7
2023-03-10T07:53:45.976Z,1.7
2023-03-10T07:55:49.660Z,1.6
2023-03-10T07:57:53.387Z,1.7
2023-03-10T07:59:57.027Z,1.7
2023-03-10T08:02:00.691Z,1.7
2023-03-10T08:04:07.575Z,1.9
2023-03-10T08:06:11.112Z,1.9
2023-03-10T08:08:14.746Z,2
2023-03-10T08:10:18.465Z,2
2023-03-10T08:12:22.122Z,2
2023-03-10T08:14:25.838Z,2.1
2023-03-10T08:16:29.618Z,2.1
2023-03-10T08:18:36.720Z,2.2
2023-03-10T08:20:40.576Z,2.2
2023-03-10T08:22:43.855Z,2.2
2023-03-10T08:24:47.628Z,2.2
2023-03-10T08:26:51.352Z,2.1
2023-03-10T08:28:54.978Z,2.1
2023-03-10T08:31:04.986Z,2.1
2023-03-10T08:33:05.510Z,2.2
2023-03-10T08:35:09.096Z,2.2
2023-03-10T08:37:12.704Z,2.2
2023-03-10T08:38:16.111Z,2.2
2023-03-10T08:40:19.782Z,2.2
2023-03-10T08:42:23.422Z,2.2
2023-03-10T08:44:27.118Z,2.2
2023-03-10T08:46:33.862Z,2.2
2023-03-10T08:52:44.770Z,2.3
2023-03-10T08:54:48.460Z,2.2
2023-03-10T09:03:06.397Z,2.2
2023-03-10T09:05:10.121Z,2.1
2023-03-10T09:09:17.475Z,2.3
2023-03-10T09:11:21.107Z,2.3
2023-03-10T09:13:24.775Z,2.3
2023-03-10T09:15:31.549Z,2.2
2023-03-10T09:17:35.227Z,2.2
2023-03-10T09:19:38.843Z,2.2
2023-03-10T09:21:42.494Z,2.2
2023-03-10T09:23:46.161Z,2.3
2023-03-10T09:25:49.853Z,2.4
2023-03-10T09:30:01.471Z,2.3
2023-03-10T09:32:03.904Z,2.3
2023-03-10T09:36:31.858Z,2.5
2023-03-10T09:38:35.491Z,2.5
2023-03-10T09:40:39.117Z,2.6
2023-03-10T09:42:45.884Z,2.7
2023-03-10T09:44:49.529Z,2.6
2023-03-10T09:48:56.921Z,2.6
2023-03-10T09:53:04.295Z,2.6
2023-03-10T09:55:08.027Z,2.6
2023-03-10T09:57:14.676Z,2.5
2023-03-10T09:59:18.329Z,2.5
2023-03-10T10:03:25.704Z,2.5
2023-03-10T10:05:29.286Z,2.4
2023-03-10T10:07:32.941Z,2.4
2023-03-10T10:09:36.662Z,2.5
2023-03-10T10:11:43.576Z,2.6
2023-03-10T10:13:47.189Z,2.6
2023-03-10T10:18:00.623Z,2.5
2023-03-10T10:24:05.704Z,2.7
2023-03-10T10:28:16.081Z,2.5
2023-03-10T10:31:23.265Z,2.4
2023-03-10T10:33:26.885Z,2.4
2023-03-10T10:35:31.332Z,2.5
2023-03-10T10:37:38.792Z,2.5
2023-03-10T10:39:41.710Z,2.4
2023-03-10T10:41:45.312Z,2.5
2023-03-10T10:43:48.958Z,2.4
2023-03-10T10:45:52.649Z,2.4
2023-03-10T10:54:10.225Z,2.4
2023-03-10T10:56:13.868Z,2.5
2023-03-10T11:02:25.130Z,2.4
2023-03-10T11:04:28.653Z,2.5
2023-03-10T11:10:42.642Z,2.5
2023-03-10T11:12:46.313Z,2.5
2023-03-10T11:18:57.322Z,2.5
2023-03-10T11:21:00.967Z,2.6
2023-03-10T11:23:07.673Z,2.6
2023-03-10T11:25:11.431Z,2.6
2023-03-10T11:27:15.133Z,2.5
2023-03-10T11:28:18.463Z,2.5
2023-03-10T11:32:25.827Z,2.5
2023-03-10T11:36:43.330Z,2.6
2023-03-10T11:38:39.936Z,2.6
2023-03-10T11:40:43.605Z,2.6
2023-03-10T11:42:47.301Z,2.6
2023-03-10T11:44:50.919Z,2.7
2023-03-10T11:46:54.592Z,2.8
2023-03-10T11:48:58.231Z,2.9
2023-03-10T11:51:04.932Z,2.8
2023-03-10T11:53:08.555Z,2.8
2023-03-10T11:55:12.187Z,2.8
2023-03-10T11:57:15.832Z,2.8
2023-03-10T11:59:19.462Z,2.8
2023-03-10T12:01:23.103Z,2.9
2023-03-10T12:03:26.873Z,2.8
2023-03-10T12:05:33.747Z,2.8
2023-03-10T12:07:37.270Z,2.8
2023-03-10T12:09:42.569Z,2.7
2023-03-10T12:11:46.079Z,2.6
2023-03-10T12:13:49.706Z,2.6
2023-03-10T12:15:53.351Z,2.6
2023-03-10T12:17:57.084Z,2.6
2023-03-10T12:20:03.786Z,2.6
2023-03-10T12:22:07.444Z,2.6
2023-03-10T12:24:12.524Z,2.7
2023-03-10T12:25:14.421Z,2.6
2023-03-10T12:27:18.085Z,2.6
2023-03-10T12:29:21.778Z,2.4
2023-03-10T12:31:25.450Z,2.4
2023-03-10T12:35:35.848Z,2.4
2023-03-10T12:37:39.476Z,2.4
2023-03-10T12:39:43.160Z,2.4
2023-03-10T12:41:46.738Z,2.4
2023-03-10T12:45:54.061Z,2.3
2023-03-10T12:48:00.946Z,2.2
2023-03-10T12:50:04.669Z,2.2
2023-03-10T12:52:08.306Z,2.1
2023-03-10T12:54:11.915Z,2.2
2023-03-10T12:56:15.590Z,2.1
2023-03-10T12:58:19.230Z,2.1
2023-03-10T13:00:22.858Z,2.2
2023-03-10T13:02:30.373Z,2.2
2023-03-10T13:06:36.807Z,2.1
2023-03-10T13:08:40.528Z,2.1
2023-03-10T13:10:44.155Z,2.1
2023-03-10T13:12:47.793Z,2.1
2023-03-10T13:14:51.393Z,2.2
2023-03-10T13:16:58.115Z,2.1
2023-03-10T13:21:05.396Z,2
2023-03-10T13:29:44.019Z,2
2023-03-10T13:31:47.815Z,2
2023-03-10T13:33:53.653Z,2.1
2023-03-10T13:35:55.083Z,2
2023-03-10T13:40:02.426Z,2.1
2023-03-10T13:42:06.016Z,2
2023-03-10T13:46:16.435Z,2
2023-03-10T13:48:20.027Z,2.1
2023-03-10T13:50:23.634Z,2.1
2023-03-10T13:52:27.347Z,2
2023-03-10T13:54:31.085Z,2
2023-03-10T13:56:34.801Z,1.9
2023-03-10T14:00:45.172Z,1.9
2023-03-10T14:02:48.719Z,1.9
2023-03-10T14:04:52.445Z,1.9
2023-03-10T14:06:56.140Z,1.9
2023-03-10T14:08:59.785Z,1.8
2023-03-10T14:13:10.200Z,1.7
2023-03-10T14:15:13.974Z,1.8
2023-03-10T14:17:17.584Z,1.7
2023-03-10T14:20:24.764Z,1.6
2023-03-10T14:22:28.383Z,1.6
2023-03-10T14:24:32.046Z,1.5
2023-03-10T14:28:42.346Z,1.4
2023-03-10T14:30:46.064Z,1.3
2023-03-10T14:32:49.828Z,1.3
2023-03-10T14:34:53.435Z,1.2
2023-03-10T14:36:57.076Z,1.1
2023-03-10T14:39:00.757Z,1
2023-03-10T14:41:07.590Z,0.9
2023-03-10T14:43:11.255Z,0.9
2023-03-10T14:45:14.971Z,0.8
2023-03-10T14:47:18.785Z,0.7
2023-03-10T14:49:22.236Z,0.6
2023-03-10T14:51:35.478Z,0.5
2023-03-10T14:55:36.644Z,0.4
2023-03-10T14:57:41.240Z,0.4
2023-03-10T14:59:44.950Z,0.3
2023-03-10T15:01:48.753Z,0.3
2023-03-10T15:03:52.456Z,0.3
2023-03-10T15:05:56.183Z,0.3
2023-03-10T15:07:59.895Z,0.2
2023-03-10T15:10:11.566Z,0.2
2023-03-10T15:12:10.420Z,0.2
2023-03-10T15:15:17.519Z,0.2
2023-03-10T15:21:28.712Z,0
2023-03-10T15:25:39.255Z,0.1
2023-03-10T15:31:50.432Z,0
2023-03-10T15:35:57.914Z,0
2023-03-10T15:38:04.833Z,0
2023-03-10T15:40:08.489Z,0
2023-03-10T15:42:12.155Z,0
2023-03-10T15:44:15.910Z,-0.1
2023-03-10T15:46:19.632Z,-0.1
2023-03-10T15:48:23.332Z,-0.1
2023-03-10T15:54:37.490Z,-0.2
2023-03-10T15:56:41.326Z,-0.2
2023-03-10T15:58:44.854Z,-0.2
2023-03-10T16:00:48.559Z,-0.2
2023-03-10T16:02:52.132Z,-0.2
2023-03-10T16:04:55.947Z,-0.2
2023-03-10T16:07:02.668Z,-0.2
2023-03-10T16:12:13.625Z,-0.2
2023-03-10T16:14:17.312Z,-0.2
2023-03-10T16:16:21.022Z,-0.2
2023-03-10T16:18:24.652Z,-0.2
2023-03-10T16:26:44.722Z,-0.2
2023-03-10T16:28:46.362Z,-0.2
2023-03-10T16:30:50.348Z,-0.2
2023-03-10T16:32:53.801Z,-0.3
2023-03-10T16:35:00.514Z,-0.3
2023-03-10T16:37:04.196Z,-0.2
2023-03-10T16:39:07.906Z,-0.3
2023-03-10T16:45:19.036Z,-0.3
2023-03-10T16:47:22.765Z,-0.2
2023-03-10T16:49:29.518Z,-0.3
2023-03-10T16:51:33.227Z,-0.3
2023-03-10T16:55:40.666Z,-0.3
2023-03-10T16:57:44.319Z,-0.3
2023-03-10T16:59:48.028Z,-0.3
2023-03-10T17:01:51.818Z,-0.3
2023-03-10T17:03:58.718Z,-0.3
2023-03-10T17:06:02.376Z,-0.3
2023-03-10T17:08:06.181Z,-0.3
2023-03-10T17:10:12.349Z,-0.3
2023-03-10T17:12:15.973Z,-0.3
2023-03-10T17:14:19.634Z,-0.3
2023-03-10T17:16:25.920Z,-0.3
2023-03-10T17:18:29.587Z,-0.3
2023-03-10T17:20:33.232Z,-0.3
2023-03-10T17:22:39.471Z,-0.2
2023-03-10T17:24:43.219Z,-0.3
2023-03-10T17:26:46.852Z,-0.3
2023-03-10T17:34:02.381Z,-0.2
2023-03-10T17:36:06.051Z,-0.3
2023-03-10T17:38:12.209Z,-0.3
2023-03-10T17:40:15.847Z,-0.3
2023-03-10T17:42:19.556Z,-0.3
2023-03-10T17:44:25.817Z,-0.3
2023-03-10T17:46:29.565Z,-0.3
2023-03-10T17:50:39.359Z,-1.4
2023-03-10T17:52:43.050Z,0.3
2023-03-10T17:54:46.729Z,-1.2
2023-03-10T17:56:52.995Z,-0.1
2023-03-10T17:58:56.700Z,0.1
2023-03-10T18:01:00.402Z,0.3
2023-03-10T18:06:11.279Z,-0.7
2023-03-10T18:08:15.009Z,0
2023-03-10T18:10:18.650Z,0.6
2023-03-10T18:12:24.858Z,0.6
2023-03-10T18:14:28.544Z,0.3
2023-03-10T18:16:32.246Z,-0.3
2023-03-10T18:18:38.469Z,0.5
2023-03-10T18:20:42.128Z,-0.4
2023-03-10T18:22:45.838Z,-1.2
2023-03-10T18:24:52.066Z,-0.1
2023-03-10T18:26:55.811Z,0.3
2023-03-10T18:33:09.394Z,0.6
2023-03-10T18:35:13.124Z,-1.3
2023-03-10T18:37:19.278Z,0.6
2023-03-10T18:39:22.955Z,0.4
2023-03-10T18:41:26.671Z,-0.3
2023-03-10T18:46:27.719Z,-1.3
2023-03-10T18:50:35.037Z,-0.1
2023-03-10T18:52:41.234Z,-0.5
2023-03-10T18:54:44.999Z,0.5
2023-03-10T18:56:48.714Z,-0.1
2023-03-10T18:58:54.952Z,-0.2
2023-03-10T19:00:58.771Z,-1
2023-03-10T19:03:02.489Z,0.2
2023-03-10T19:05:08.698Z,-0.5
2023-03-10T19:07:12.437Z,-0.5
2023-03-10T19:09:16.140Z,-1.2
2023-03-10T19:13:26.037Z,-0.4
2023-03-10T19:15:29.746Z,1.1
2023-03-10T19:17:35.853Z,-1.4
2023-03-10T19:19:39.545Z,-1.8
2023-03-10T19:21:43.295Z,0.4
2023-03-10T19:23:49.408Z,0.5
2023-03-10T19:25:53.091Z,0.7
2023-03-10T19:27:56.700Z,0.6
2023-03-10T19:30:02.970Z,0.7
2023-03-10T19:32:06.716Z,0
2023-03-10T19:34:10.411Z,0.3
2023-03-10T19:36:16.796Z,0
2023-03-10T19:38:20.381Z,-1.1
2023-03-10T19:40:24.050Z,0.2
2023-03-10T19:42:30.328Z,-2
2023-03-10T19:44:34.083Z,0.8
2023-03-10T19:46:37.865Z,0.9
2023-03-10T19:53:51.004Z,0.2
2023-03-10T19:55:54.620Z,0.1
2023-03-10T19:58:00.886Z,0
2023-03-10T20:00:04.531Z,0.3
2023-03-10T20:02:08.254Z,0
2023-03-10T20:12:31.793Z,0.1
2023-03-10T20:14:35.474Z,-0.1
2023-03-10T20:16:41.731Z,0.1
2023-03-10T20:18:45.364Z,-0.1
2023-03-10T20:20:49.064Z,0.1
2023-03-10T20:22:55.335Z,-0.2
2023-03-10T20:24:59.054Z,-0.5
2023-03-10T20:27:02.710Z,-0.2
2023-03-10T20:29:08.972Z,-0.3
2023-03-10T20:33:16.440Z,0.1
2023-03-10T20:35:22.738Z,0.2
2023-03-10T20:37:26.414Z,-0.2
2023-03-10T20:39:30.097Z,0
2023-03-10T20:41:36.335Z,-0.2
2023-03-10T20:45:43.940Z,0.3
2023-03-10T20:47:50.112Z,-0.1
2023-03-10T20:49:53.749Z,-0.1
2023-03-10T20:54:03.682Z,0
2023-03-10T21:00:17.219Z,-0.2
2023-03-10T21:02:20.944Z,0.3
2023-03-10T21:04:27.536Z,0.1
2023-03-10T21:06:30.928Z,0.2
2023-03-10T21:08:34.618Z,0.2
2023-03-10T21:10:38.376Z,0
2023-03-10T21:12:44.579Z,-0.1
2023-03-10T21:14:48.213Z,-0.3
2023-03-10T21:16:51.959Z,-1.2
2023-03-10T21:18:58.221Z,-0.4
2023-03-10T21:21:01.918Z,-0.4
2023-03-10T21:23:05.599Z,-1.1
2023-03-10T21:25:11.837Z,-0.7
2023-03-10T21:27:15.525Z,-0.2
2023-03-10T21:29:19.197Z,-0.9
2023-03-10T21:31:25.385Z,-0.1
2023-03-10T21:35:32.882Z,-0.4
2023-03-10T21:37:41.128Z,-0.9
2023-03-10T21:39:42.856Z,0
2023-03-10T21:43:52.862Z,-0.5
2023-03-10T21:45:56.527Z,-0.9
2023-03-10T21:48:00.203Z,0
2023-03-10T21:50:06.365Z,-0.5
2023-03-10T21:54:13.851Z,-0.1
2023-03-10T21:56:19.975Z,-0.3
2023-03-10T21:58:23.699Z,-0.4
2023-03-10T22:00:27.361Z,-0.8
2023-03-10T22:02:33.615Z,-0.9
2023-03-10T22:04:37.637Z,-1
2023-03-10T22:06:40.988Z,-0.3
2023-03-10T22:15:40.094Z,-0.3
2023-03-10T22:17:43.600Z,-0.9
2023-03-10T22:26:00.628Z,-0.2
2023-03-10T22:31:04.898Z,-0.8
2023-03-10T22:33:08.578Z,-0.3
2023-03-10T22:35:12.266Z,-0.2
2023-03-10T22:37:18.508Z,-0.6
2023-03-10T22:39:22.200Z,-1.1
2023-03-10T22:41:25.885Z,-0.8
2023-03-10T22:46:31.308Z,-0.2
2023-03-10T22:48:34.960Z,-0.4
2023-03-10T22:50:38.591Z,-0.4
2023-03-10T22:52:44.826Z,-0.5
2023-03-10T23:05:12.022Z,-0.4
2023-03-10T23:15:32.877Z,-0.4
2023-03-10T23:17:39.032Z,-0.4
2023-03-10T23:19:42.752Z,-0.5
2023-03-10T23:21:46.494Z,-0.9
2023-03-10T23:23:52.735Z,-0.6
2023-03-10T23:25:56.536Z,-0.6
2023-03-10T23:28:00.226Z,-0.2
2023-03-10T23:30:06.494Z,-0.2
2023-03-10T23:34:13.936Z,-0.9
2023-03-10T23:36:20.193Z,-0.6
2023-03-10T23:38:23.871Z,-0.9
2023-03-10T23:40:27.493Z,-1
2023-03-10T23:42:33.678Z,-0.3
2023-03-10T23:44:37.389Z,-1.1
2023-03-10T23:46:41.083Z,-0.5
2023-03-10T23:50:51.079Z,-1.1
2023-03-10T23:52:54.675Z,-0.6
2023-03-10T23:55:00.865Z,-1.1
